Ashton, South Dakota
Current Conditions -  °F | °C
As of 4:23 PM on Wednesday 28 Jan 2015 (Local Time) from KABR Reporting Station
Overcast Overcast  
Wind Chill: 34°   Ceiling: 1400
Heat Index: 41°   Visibility: 10mi
Dew Point: 36°   Wind: 13mph
Humidity: 82%   Direction: 360°N
Pressure: 29.8"   Gusts: NA
Location:  44.99°N, 98.5°W
Report Text: KABR 282223Z AUTO 36011KT 10SM OVC014 05/02 A2980 RMK AO2 PRESRR T00500022
Loading
Personal Weather Stations






























Interactive Weather Map New forecast layout! Learn more

10-Day Weather Forecast

Advertisements
Track Severe Weather on mobile